Time;durP1;ratioP1;P1;durP2;ratioP2;P2;SDS_P1;SDS_P2;PMS_P1;PMS_P2;Temp;Humidity;BMP_temperature;BMP_pressure;BME280_temperature;BME280_humidity;BME280_pressure;Samples;Min_cycle;Max_cycle;Signal;HPM_P1;HPM_P2
2022/10/17 00:00:42;;;;;;;;;7.00;7.00;;;;;18.94;78.84;101060.53;5017954;28;46463;-68
2022/10/17 00:03:08;;;;;;;;;10.00;10.00;;;;;18.90;78.87;101052.75;5017600;28;45734;-68
2022/10/17 00:05:37;;;;;;;;;9.50;8.25;;;;;18.95;79.22;101066.84;5019962;28;45344;-68
2022/10/17 00:08:03;;;;;;;;;9.50;9.50;;;;;18.88;78.77;101058.25;5018567;28;46182;-68
2022/10/17 00:10:28;;;;;;;;;11.00;9.50;;;;;18.92;78.69;101054.38;5018338;28;46455;-68
2022/10/17 00:12:53;;;;;;;;;9.50;9.50;;;;;19.10;79.26;101089.38;5019913;28;45571;-68
2022/10/17 00:15:19;;;;;;;;;8.75;8.25;;;;;18.95;79.15;101064.16;5011206;28;45435;-68
2022/10/17 00:17:45;;;;;;;;;11.00;9.00;;;;;18.91;78.79;101067.97;5011369;28;45493;-68
2022/10/17 00:20:11;;;;;;;;;6.50;6.50;;;;;19.06;78.80;101088.66;5015145;28;47304;-68
2022/10/17 00:22:37;;;;;;;;;11.50;11.25;;;;;19.11;78.62;101089.28;5015757;28;45872;-68
2022/10/17 00:25:03;;;;;;;;;8.25;8.25;;;;;19.11;78.86;101089.28;5026525;28;45643;-68
2022/10/17 00:27:28;;;;;;;;;8.75;8.75;;;;;19.06;78.50;101075.13;5012758;28;45502;-68
2022/10/17 00:29:53;;;;;;;;;7.25;7.00;;;;;19.05;78.77;101076.97;5019966;28;46425;-68
2022/10/17 00:32:19;;;;;;;;;8.25;8.25;;;;;18.97;78.54;101068.47;5018746;28;45596;-68
2022/10/17 00:34:44;;;;;;;;;8.00;7.25;;;;;18.99;78.67;101063.81;5019279;28;45498;-68
2022/10/17 00:37:10;;;;;;;;;6.25;6.25;;;;;19.00;78.48;101071.00;5019536;28;45613;-68
2022/10/17 00:39:35;;;;;;;;;11.25;8.50;;;;;19.12;78.72;101093.69;5019428;28;45546;-68
2022/10/17 00:42:00;;;;;;;;;7.00;7.00;;;;;19.14;78.37;101099.88;5019768;28;45248;-68
2022/10/17 00:44:29;;;;;;;;;9.50;9.50;;;;;19.15;78.56;101107.03;5019672;28;45501;-68
2022/10/17 00:47:01;;;;;;;;;9.25;8.00;;;;;19.09;78.79;101093.88;5018856;28;45478;-68
2022/10/17 00:49:29;;;;;;;;;7.00;7.00;;;;;19.22;78.27;101113.81;5019253;28;45424;-68
2022/10/17 00:51:59;;;;;;;;;10.75;9.50;;;;;19.10;78.04;101082.13;5029764;28;45382;-68
2022/10/17 00:54:31;;;;;;;;;7.50;7.50;;;;;19.14;77.91;101082.78;5027387;28;45304;-68
2022/10/17 00:56:57;;;;;;;;;6.25;6.25;;;;;19.22;78.36;101092.16;5018593;28;45465;-68
2022/10/17 00:59:24;;;;;;;;;8.50;7.50;;;;;19.02;78.09;101071.75;5019307;28;46079;-68
2022/10/17 01:02:16;;;;;;;;;5.75;5.75;;;;;19.27;77.76;101102.69;5018751;28;45544;-68
2022/10/17 01:04:46;;;;;;;;;7.50;6.50;;;;;19.15;77.73;101084.53;5017609;28;45405;-68
2022/10/17 01:07:11;;;;;;;;;7.75;7.00;;;;;19.07;77.76;101085.00;5019041;28;45340;-68
2022/10/17 01:09:38;;;;;;;;;7.25;7.00;;;;;19.16;77.34;101089.84;5019184;28;45722;-68
2022/10/17 01:12:31;;;;;;;;;6.75;6.75;;;;;19.25;77.49;101094.66;5030420;28;45437;-68
2022/10/17 01:15:14;;;;;;;;;8.75;8.75;;;;;19.31;77.37;101101.53;5015436;28;45442;-68
2022/10/17 01:18:22;;;;;;;;;7.00;7.00;;;;;19.31;77.17;101092.53;5019156;28;45245;-68
2022/10/17 01:21:34;;;;;;;;;9.75;9.00;;;;;19.32;77.26;101114.09;5010850;28;46504;-68
2022/10/17 01:24:09;;;;;;;;;8.75;7.00;;;;;19.33;77.11;101120.38;5012637;28;45376;-69
2022/10/17 01:27:09;;;;;;;;;8.00;8.00;;;;;19.32;77.01;101119.50;5017917;28;45607;-68
2022/10/17 01:29:49;;;;;;;;;8.00;6.75;;;;;19.13;77.26;101087.34;5004230;28;45452;-68
2022/10/17 01:32:25;;;;;;;;;7.00;7.00;;;;;19.20;76.71;101099.50;5023724;28;47595;-68
2022/10/17 01:35:06;;;;;;;;;6.50;6.00;;;;;19.15;76.94;101095.34;5005159;28;45728;-68
2022/10/17 01:37:32;;;;;;;;;6.25;6.25;;;;;19.33;76.52;101126.66;5018610;28;45375;-68
2022/10/17 01:40:13;;;;;;;;;8.00;7.75;;;;;19.34;76.49;101127.53;5019005;28;45320;-68
2022/10/17 01:42:49;;;;;;;;;10.75;8.25;;;;;19.33;76.55;101123.06;5018531;28;45470;-68
2022/10/17 01:45:30;;;;;;;;;6.00;6.00;;;;;19.24;76.28;101109.19;5018498;28;45670;-68
2022/10/17 01:47:59;;;;;;;;;5.25;5.25;;;;;19.20;76.17;101102.22;5003910;28;45374;-68
2022/10/17 01:50:33;;;;;;;;;5.75;5.75;;;;;19.33;75.91;101136.59;5020696;28;45484;-68
2022/10/17 01:53:05;;;;;;;;;7.75;6.00;;;;;19.26;75.93;101128.00;5017174;28;47181;-68
2022/10/17 01:55:35;;;;;;;;;8.00;8.00;;;;;19.22;76.04;101112.94;5018358;28;45508;-68
2022/10/17 01:58:25;;;;;;;;;9.75;9.00;;;;;19.22;75.69;101107.53;5018681;28;45453;-68
2022/10/17 02:00:54;;;;;;;;;7.75;6.25;;;;;19.17;75.87;101104.25;5004097;28;45333;-68
2022/10/17 02:03:21;;;;;;;;;9.50;9.00;;;;;19.31;75.80;101125.00;5018459;28;46422;-68
2022/10/17 02:05:46;;;;;;;;;6.75;6.00;;;;;19.34;75.50;101135.66;5016939;28;45396;-68
2022/10/17 02:08:12;;;;;;;;;7.25;7.25;;;;;19.24;75.45;101119.13;5018450;28;45381;-68
2022/10/17 02:10:54;;;;;;;;;6.50;6.50;;;;;19.15;76.05;101103.47;5018552;28;45343;-68
2022/10/17 02:13:35;;;;;;;;;4.75;4.75;;;;;19.27;75.97;101118.06;5018316;28;46394;-68
2022/10/17 02:16:41;;;;;;;;;7.25;7.25;;;;;19.34;75.67;101135.66;5016609;28;45356;-68
2022/10/17 02:19:25;;;;;;;;;8.25;7.00;;;;;19.34;75.61;101138.34;5010427;28;45460;-68
2022/10/17 02:22:11;;;;;;;;;7.00;5.75;;;;;19.34;75.87;101144.63;5013937;28;45308;-68
2022/10/17 02:24:51;;;;;;;;;6.00;5.00;;;;;19.34;75.82;101127.53;5014496;28;46348;-68
2022/10/17 02:27:22;;;;;;;;;9.25;7.75;;;;;19.33;75.60;101129.38;5021515;28;45510;-68
2022/10/17 02:29:56;;;;;;;;;7.75;7.75;;;;;19.31;75.63;101123.19;5020963;28;45540;-68
2022/10/17 02:32:37;;;;;;;;;6.25;6.25;;;;;19.18;75.75;101095.16;5020958;28;45653;-68
2022/10/17 02:35:07;;;;;;;;;10.00;10.00;;;;;19.11;75.55;101073.03;5019991;28;47537;-68
2022/10/17 02:37:34;;;;;;;;;7.25;7.25;;;;;19.16;75.48;101087.16;5020053;28;46046;-68
2022/10/17 02:40:02;;;;;;;;;5.25;5.00;;;;;19.13;75.87;101087.34;5028619;28;45515;-68
2022/10/17 02:42:28;;;;;;;;;8.50;7.50;;;;;19.05;75.91;101068.00;5019976;28;45518;-68
2022/10/17 02:44:57;;;;;;;;;5.75;5.75;;;;;19.12;75.59;101074.75;5020866;28;46189;-68
2022/10/17 02:47:36;;;;;;;;;5.50;5.50;;;;;19.32;75.67;101108.69;5021364;28;45454;-68
2022/10/17 02:50:03;;;;;;;;;8.00;6.50;;;;;19.24;75.80;101106.47;5022353;28;45377;-68
2022/10/17 02:52:34;;;;;;;;;7.25;7.25;;;;;19.35;75.65;101124.72;5022049;28;45624;-69
2022/10/17 02:55:16;;;;;;;;;5.75;5.75;;;;;19.21;75.60;101108.47;5020881;28;46287;-68
2022/10/17 02:58:01;;;;;;;;;6.50;6.00;;;;;19.35;75.70;101129.28;5019730;28;45739;-68
2022/10/17 03:00:28;;;;;;;;;6.75;6.75;;;;;19.24;75.44;101119.13;5021096;28;45535;-68
2022/10/17 03:02:54;;;;;;;;;5.75;5.75;;;;;19.08;75.66;101084.06;5021162;28;45543;-68
2022/10/17 03:05:25;;;;;;;;;7.00;7.00;;;;;19.16;75.91;101103.38;5036227;28;47226;-68
2022/10/17 03:07:51;;;;;;;;;10.50;7.00;;;;;19.16;75.89;101091.66;5020884;28;45377;-68
2022/10/17 03:10:17;;;;;;;;;8.00;7.25;;;;;19.22;75.80;101110.22;5021075;28;45453;-68
2022/10/17 03:12:42;;;;;;;;;7.50;7.00;;;;;19.29;75.93;101117.00;5021042;28;45320;-68
2022/10/17 03:15:08;;;;;;;;;6.00;5.25;;;;;19.32;75.82;101138.44;5018976;28;45576;-68
2022/10/17 03:17:34;;;;;;;;;7.50;6.50;;;;;19.20;75.83;101114.88;5020864;28;45653;-68
2022/10/17 03:20:00;;;;;;;;;6.00;6.00;;;;;19.10;75.84;101095.63;5023596;28;45478;-68
2022/10/17 03:22:25;;;;;;;;;6.75;6.75;;;;;19.12;75.76;101100.97;5028285;28;45416;-68
2022/10/17 03:24:50;;;;;;;;;9.50;7.50;;;;;19.23;75.54;101125.53;5030111;28;46839;-68
2022/10/17 03:27:16;;;;;;;;;6.50;6.50;;;;;19.16;75.68;101114.22;5013119;28;46708;-68
2022/10/17 03:29:41;;;;;;;;;7.50;7.00;;;;;19.18;75.38;101125.78;5019248;28;45396;-68
2022/10/17 03:32:07;;;;;;;;;11.25;8.75;;;;;19.08;75.82;101116.53;5019543;28;45438;-68
2022/10/17 03:34:32;;;;;;;;;9.25;7.25;;;;;19.05;75.31;101111.28;5019605;28;46320;-68
2022/10/17 03:36:57;;;;;;;;;7.75;6.75;;;;;19.11;75.46;101131.69;5019967;28;45411;-68
2022/10/17 03:39:23;;;;;;;;;7.75;7.75;;;;;19.22;75.31;101156.25;5020779;28;45226;-68
2022/10/17 03:41:48;;;;;;;;;7.00;7.00;;;;;19.14;75.46;101155.84;5035845;28;45599;-68
2022/10/17 03:44:14;;;;;;;;;10.75;8.75;;;;;19.06;75.19;101142.78;5020055;28;45419;-68
2022/10/17 03:46:39;;;;;;;;;7.75;6.25;;;;;19.15;75.34;101160.31;5011662;28;45432;-68
2022/10/17 03:49:05;;;;;;;;;7.75;7.75;;;;;19.04;75.62;101152.81;5020532;28;45340;-68
2022/10/17 03:51:32;;;;;;;;;9.50;8.00;;;;;19.14;75.34;101170.22;5025281;28;45330;-68
2022/10/17 03:53:57;;;;;;;;;6.75;6.25;;;;;19.01;75.19;101153.00;5018972;28;46924;-68
2022/10/17 03:56:24;;;;;;;;;6.00;6.00;;;;;19.05;75.15;101168.09;5020019;28;45347;-68
2022/10/17 03:58:50;;;;;;;;;6.50;5.00;;;;;19.06;74.96;101169.81;5019314;28;45419;-68
2022/10/17 04:01:17;;;;;;;;;7.75;7.25;;;;;19.15;75.09;101185.50;5018647;28;45618;-68
2022/10/17 04:03:43;;;;;;;;;6.25;6.00;;;;;19.10;75.06;101181.38;5018139;28;48481;-68
2022/10/17 04:06:11;;;;;;;;;7.00;7.00;;;;;19.22;75.00;101199.53;5035325;28;45547;-68
2022/10/17 04:08:37;;;;;;;;;8.75;8.75;;;;;19.07;74.71;101179.69;5020096;28;45538;-68
2022/10/17 04:11:06;;;;;;;;;6.75;6.00;;;;;19.21;74.70;101195.97;5020164;28;45538;-68
2022/10/17 04:13:32;;;;;;;;;6.75;6.00;;;;;19.00;74.64;101162.13;5018968;28;46547;-68
2022/10/17 04:16:01;;;;;;;;;5.25;5.25;;;;;19.15;74.59;101190.06;5018826;28;45333;-68
2022/10/17 04:18:27;;;;;;;;;8.00;6.25;;;;;19.21;74.90;101195.06;5018557;28;45336;-68
2022/10/17 04:20:52;;;;;;;;;9.50;6.75;;;;;18.92;74.56;101153.59;5029960;28;45434;-68
2022/10/17 04:23:18;;;;;;;;;7.00;7.00;;;;;19.02;74.49;101179.13;5019270;28;46305;-68
2022/10/17 04:25:43;;;;;;;;;5.25;5.25;;;;;19.00;74.28;101175.63;5019660;28;45471;-68
2022/10/17 04:28:09;;;;;;;;;4.50;4.50;;;;;18.97;74.10;101173.97;5019913;28;45430;-68
2022/10/17 04:30:34;;;;;;;;;9.00;7.75;;;;;19.09;74.31;101194.00;5017828;28;45706;-68
2022/10/17 04:32:59;;;;;;;;;8.00;6.50;;;;;19.20;74.33;101212.31;5019365;28;45413;-68
2022/10/17 04:35:25;;;;;;;;;9.50;7.50;;;;;18.97;74.19;101178.53;5013531;28;45336;-68
2022/10/17 04:37:50;;;;;;;;;7.50;6.50;;;;;19.17;73.85;101215.19;5016739;28;45434;-68
2022/10/17 04:40:16;;;;;;;;;4.75;4.00;;;;;19.13;73.93;101222.63;5019776;28;45430;-68
2022/10/17 04:42:41;;;;;;;;;7.00;7.00;;;;;19.12;73.94;101226.28;5011171;28;46716;-68
2022/10/17 04:45:07;;;;;;;;;7.50;6.75;;;;;19.00;73.98;101208.09;5014344;28;45721;-68
2022/10/17 04:47:33;;;;;;;;;6.00;6.00;;;;;18.99;74.12;101203.63;5017543;28;45460;-68
2022/10/17 04:49:58;;;;;;;;;8.50;7.50;;;;;19.07;73.87;101214.88;5023929;28;45505;-68
2022/10/17 04:52:24;;;;;;;;;7.50;7.50;;;;;19.13;73.58;101233.44;5022015;28;45410;-68
2022/10/17 04:54:50;;;;;;;;;5.75;5.75;;;;;18.95;73.63;101202.09;5019287;28;45560;-68
2022/10/17 04:57:16;;;;;;;;;8.50;6.75;;;;;18.90;73.60;101204.22;5019424;28;45292;-68
2022/10/17 04:59:41;;;;;;;;;5.50;5.50;;;;;19.04;73.75;101221.34;5027034;28;45409;-68
2022/10/17 05:02:07;;;;;;;;;6.00;4.50;;;;;19.03;73.95;101225.00;5019237;28;45444;-68
2022/10/17 05:04:32;;;;;;;;;6.25;5.50;;;;;19.06;73.33;101235.66;5019318;28;45256;-68
2022/10/17 05:06:58;;;;;;;;;6.00;6.00;;;;;18.98;73.40;101235.25;5019099;28;45268;-68
2022/10/17 05:09:23;;;;;;;;;6.00;6.00;;;;;18.95;73.20;101239.97;5018857;28;45608;-68
2022/10/17 05:11:48;;;;;;;;;7.75;6.00;;;;;18.87;73.15;101232.31;5018938;28;45718;-68
2022/10/17 05:14:14;;;;;;;;;8.75;7.50;;;;;19.00;73.64;101254.09;5018024;28;45381;-68
2022/10/17 05:16:39;;;;;;;;;5.25;5.25;;;;;18.88;73.52;101237.63;5009860;28;45430;-68
2022/10/17 05:19:05;;;;;;;;;5.00;5.00;;;;;19.01;73.71;101254.00;5019116;28;45515;-68
2022/10/17 05:21:30;;;;;;;;;7.75;6.00;;;;;18.98;73.86;101256.03;5017798;28;46097;-68
2022/10/17 05:23:56;;;;;;;;;7.00;6.00;;;;;18.95;73.86;101239.97;5017617;28;45479;-68
2022/10/17 05:26:22;;;;;;;;;5.50;5.50;;;;;19.00;74.08;101251.38;5018771;28;45329;-68
2022/10/17 05:28:48;;;;;;;;;7.00;6.00;;;;;19.06;74.35;101260.00;5019081;28;45489;-68
2022/10/17 05:31:13;;;;;;;;;6.00;6.00;;;;;18.91;74.12;101231.16;5018510;28;46515;-68
2022/10/17 05:33:39;;;;;;;;;7.00;6.00;;;;;18.90;74.36;101239.38;5019139;28;45416;-68
2022/10/17 05:36:05;;;;;;;;;8.50;7.00;;;;;18.94;74.33;101249.03;5018554;28;45936;-68
2022/10/17 05:38:30;;;;;;;;;5.50;3.00;;;;;19.04;74.22;101282.69;5018851;28;45424;-68
2022/10/17 05:41:01;;;;;;;;;7.50;6.50;;;;;18.90;74.48;101261.88;5017414;28;45579;-68
2022/10/17 05:43:28;;;;;;;;;6.00;6.00;;;;;18.85;74.42;101254.03;5008356;28;45796;-68
2022/10/17 05:45:53;;;;;;;;;5.75;5.75;;;;;18.84;74.66;101252.31;5017864;28;45426;-68
2022/10/17 05:48:20;;;;;;;;;7.75;7.00;;;;;18.82;74.66;101254.16;5017440;28;45546;-68
2022/10/17 05:50:46;;;;;;;;;6.25;5.50;;;;;18.95;74.55;101275.13;5030378;28;46204;-68
2022/10/17 05:53:11;;;;;;;;;7.50;6.75;;;;;18.85;74.47;101236.94;5017152;28;46593;-68
2022/10/17 05:55:36;;;;;;;;;11.50;8.75;;;;;18.88;74.65;101247.59;5018357;28;45595;-68
2022/10/17 05:58:02;;;;;;;;;9.75;8.25;;;;;18.84;74.72;101238.78;5018672;28;45437;-68
2022/10/17 06:00:27;;;;;;;;;7.75;6.50;;;;;18.79;74.81;101229.16;5020552;28;46458;-68
2022/10/17 06:02:53;;;;;;;;;7.00;7.00;;;;;18.98;74.63;101258.72;5022175;28;45460;-68
2022/10/17 06:05:19;;;;;;;;;7.50;6.00;;;;;18.87;74.59;101252.09;5017370;28;45651;-68
2022/10/17 06:07:44;;;;;;;;;7.50;6.00;;;;;18.82;75.42;101227.13;5011712;28;45507;-68
2022/10/17 06:10:12;;;;;;;;;8.25;8.25;;;;;18.77;75.08;101215.72;5021738;28;45453;-68
2022/10/17 06:12:38;;;;;;;;;8.00;8.00;;;;;18.88;75.45;101244.88;5021929;28;45475;-68
2022/10/17 06:15:04;;;;;;;;;12.75;6.75;;;;;18.85;75.26;101254.03;5021598;28;45271;-71
2022/10/17 06:17:29;;;;;;;;;6.50;5.75;;;;;18.81;75.10;101244.34;5011242;28;45434;-72
2022/10/17 06:19:56;;;;;;;;;9.00;7.50;;;;;18.82;75.53;101248.75;5019405;28;45683;-72
2022/10/17 06:22:21;;;;;;;;;8.00;6.75;;;;;18.79;75.34;101243.53;5018363;28;45548;-73
2022/10/17 06:24:46;;;;;;;;;6.75;6.00;;;;;18.98;75.21;101272.25;5021820;28;45405;-73
2022/10/17 06:27:12;;;;;;;;;11.25;11.25;;;;;18.93;75.26;101280.63;5021202;28;45249;-73
2022/10/17 06:29:37;;;;;;;;;7.00;6.50;;;;;18.77;75.17;101261.69;5021108;28;45311;-72
2022/10/17 06:32:02;;;;;;;;;7.25;7.00;;;;;18.67;75.29;101250.53;5020711;28;45491;-73
2022/10/17 06:34:28;;;;;;;;;21.00;21.00;;;;;18.81;75.58;101286.72;5020412;28;45371;-73
2022/10/17 06:36:53;;;;;;;;;30.00;27.00;;;;;18.85;75.24;101300.00;5018846;28;45458;-73
2022/10/17 06:39:19;;;;;;;;;10.00;10.00;;;;;18.93;75.45;101312.22;5021575;28;45581;-74
2022/10/17 06:41:44;;;;;;;;;31.50;28.75;;;;;18.84;75.26;101295.59;5013918;28;45447;-74
2022/10/17 06:44:10;;;;;;;;;26.50;25.75;;;;;18.70;75.46;101288.22;5021112;28;45569;-73
2022/10/17 06:46:39;;;;;;;;;10.00;9.25;;;;;18.77;75.38;101294.13;5020137;28;45612;-73
2022/10/17 06:49:06;;;;;;;;;47.00;39.25;;;;;18.81;75.50;101313.75;5021212;28;46536;-73
2022/10/17 06:51:34;;;;;;;;;21.50;20.25;;;;;18.74;75.94;101305.13;5020912;28;45703;-74
2022/10/17 06:54:00;;;;;;;;;10.00;10.00;;;;;18.83;75.87;101318.16;5017639;28;45548;-73
2022/10/17 06:56:25;;;;;;;;;10.00;10.00;;;;;18.77;75.57;101323.03;5011459;28;45342;-73
2022/10/17 06:58:51;;;;;;;;;11.00;9.50;;;;;18.80;75.79;101337.25;5017802;28;46283;-73
2022/10/17 07:01:17;;;;;;;;;11.00;9.00;;;;;18.81;75.62;101332.69;5012826;28;45947;-73
2022/10/17 07:03:46;;;;;;;;;7.50;7.00;;;;;18.86;75.96;101347.75;5019862;28;45454;-73
2022/10/17 07:06:11;;;;;;;;;10.25;9.50;;;;;18.81;75.62;101343.50;5019940;28;45356;-73
2022/10/17 07:08:37;;;;;;;;;9.50;8.00;;;;;18.87;75.76;101360.28;5029766;28;45977;-73
2022/10/17 07:11:14;;;;;;;;;8.25;7.75;;;;;18.88;75.92;101367.47;5016751;28;45309;-73
2022/10/17 07:13:40;;;;;;;;;10.00;8.50;;;;;18.96;75.63;101391.38;5011251;28;45573;-75
2022/10/17 07:16:06;;;;;;;;;6.50;6.25;;;;;18.96;75.61;101398.59;5015249;28;46058;-73
2022/10/17 07:18:32;;;;;;;;;7.00;5.50;;;;;18.76;75.88;101367.25;5016975;28;45705;-73
2022/10/17 07:20:57;;;;;;;;;7.25;7.25;;;;;18.78;75.64;101377.03;5018815;28;45490;-73
2022/10/17 07:23:23;;;;;;;;;7.00;7.00;;;;;18.86;75.84;101403.66;5020070;28;45505;-73
2022/10/17 07:25:49;;;;;;;;;8.00;7.00;;;;;18.76;76.01;101388.88;5012475;28;45339;-73
2022/10/17 07:28:15;;;;;;;;;7.00;7.00;;;;;18.90;75.80;101423.31;5016230;28;47424;-77
2022/10/17 07:30:41;;;;;;;;;9.25;8.00;;;;;18.84;76.15;101411.00;5018571;28;45440;-75
2022/10/17 07:33:09;;;;;;;;;9.00;7.50;;;;;18.98;75.70;101431.88;5030013;28;45733;-73
2022/10/17 07:35:36;;;;;;;;;6.50;6.25;;;;;19.00;76.16;101443.47;5018401;28;45575;-75
2022/10/17 07:38:02;;;;;;;;;9.50;8.00;;;;;18.80;76.21;101412.09;5012051;28;45770;-76
2022/10/17 07:40:27;;;;;;;;;6.50;6.50;;;;;19.01;75.83;101446.09;5017401;28;46719;-76
2022/10/17 07:42:54;;;;;;;;;6.00;6.00;;;;;18.95;75.97;101454.53;5013663;28;45813;-76
2022/10/17 07:45:20;;;;;;;;;8.00;7.25;;;;;18.92;75.67;101440.31;5018288;28;45412;-76
2022/10/17 07:47:45;;;;;;;;;8.75;7.00;;;;;18.79;76.09;101432.84;5018799;28;46728;-76
2022/10/17 07:50:10;;;;;;;;;11.50;11.25;;;;;18.92;75.93;101453.84;5019743;28;45364;-76
2022/10/17 07:52:36;;;;;;;;;10.25;8.25;;;;;18.96;75.91;101467.13;5019033;28;45312;-76
2022/10/17 07:55:01;;;;;;;;;7.50;7.50;;;;;19.07;76.05;101493.56;5014933;28;45687;-76
2022/10/17 07:57:26;;;;;;;;;11.25;8.25;;;;;19.04;75.81;101486.50;5015503;28;46176;-75
2022/10/17 07:59:53;;;;;;;;;10.00;9.00;;;;;19.14;76.43;101507.63;5017697;28;45501;-75
2022/10/17 08:02:23;;;;;;;;;10.50;8.00;;;;;19.02;76.34;101483.00;5020934;28;45340;-76
2022/10/17 08:04:50;;;;;;;;;6.25;6.25;;;;;19.07;75.80;101498.97;5016578;28;45659;-75
2022/10/17 08:07:15;;;;;;;;;7.00;7.00;;;;;19.04;75.84;101491.03;5018240;28;45415;-75
2022/10/17 08:09:42;;;;;;;;;8.75;7.00;;;;;19.12;75.73;101499.59;5033848;28;45683;-75
2022/10/17 08:12:07;;;;;;;;;10.50;10.00;;;;;19.08;76.20;101492.63;5019436;28;45397;-75
2022/10/17 08:14:33;;;;;;;;;9.00;6.75;;;;;19.24;75.78;101520.56;5017535;28;45569;-74
2022/10/17 08:16:58;;;;;;;;;8.00;7.50;;;;;19.22;76.28;101519.75;5019457;28;45552;-74
2022/10/17 08:19:23;;;;;;;;;11.25;11.00;;;;;19.16;76.17;101503.00;5018938;28;45501;-74
2022/10/17 08:21:49;;;;;;;;;10.50;9.75;;;;;19.07;76.07;101498.97;5014408;28;45763;-74
2022/10/17 08:24:15;;;;;;;;;10.25;9.75;;;;;19.17;76.39;101511.03;5010119;28;45422;-75
2022/10/17 08:26:40;;;;;;;;;10.75;10.75;;;;;19.15;76.15;101510.25;5021192;28;45457;-75
2022/10/17 08:29:11;;;;;;;;;12.25;10.75;;;;;19.21;76.15;101525.25;5013535;28;45679;-74
2022/10/17 08:31:36;;;;;;;;;11.25;8.75;;;;;19.14;76.12;101510.34;5019159;28;45347;-74
2022/10/17 08:34:01;;;;;;;;;14.00;12.00;;;;;19.27;76.07;101532.19;5018238;28;45781;-74
2022/10/17 08:36:28;;;;;;;;;10.50;8.25;;;;;19.22;76.04;101519.75;5028340;28;45525;-75
2022/10/17 08:38:53;;;;;;;;;7.00;6.75;;;;;19.20;76.24;101527.09;5019607;28;45261;-74
2022/10/17 08:41:33;;;;;;;;;8.25;8.00;;;;;19.40;76.05;101554.88;5018507;28;45600;-75
2022/10/17 08:44:40;;;;;;;;;8.00;7.50;;;;;19.42;76.12;101567.34;5017626;28;45650;-75
2022/10/17 08:47:12;;;;;;;;;8.00;7.50;;;;;19.28;76.30;101542.03;5032575;28;47328;-74
2022/10/17 08:49:52;;;;;;;;;9.00;9.00;;;;;19.28;76.30;101542.03;5018915;28;45470;-75
2022/10/17 08:52:36;;;;;;;;;11.00;11.00;;;;;19.47;76.35;101577.94;5018115;28;45296;-75
2022/10/17 08:55:02;;;;;;;;;12.00;11.25;;;;;19.43;76.37;101568.25;5008606;28;45426;-75
2022/10/17 08:57:28;;;;;;;;;11.25;8.50;;;;;19.28;76.10;101540.22;5018814;28;47403;-75
2022/10/17 08:59:53;;;;;;;;;11.50;8.50;;;;;19.32;76.32;101540.91;5019049;28;45630;-75
2022/10/17 09:02:49;;;;;;;;;9.50;9.50;;;;;19.35;76.57;101556.97;5015584;28;45558;-75
2022/10/17 09:05:32;;;;;;;;;10.25;9.00;;;;;19.53;75.95;101585.72;5018276;28;45656;-79
2022/10/17 09:08:01;;;;;;;;;5.75;5.75;;;;;19.54;76.38;101595.56;5016026;28;45755;-74
2022/10/17 09:10:50;;;;;;;;;9.50;8.75;;;;;19.56;76.45;101601.78;5012112;28;45557;-74
2022/10/17 09:13:24;;;;;;;;;9.50;8.50;;;;;19.55;76.95;101621.69;5028623;28;45745;-75
2022/10/17 09:16:02;;;;;;;;;9.00;8.00;;;;;19.50;77.05;101623.78;5027903;28;45372;-75
2022/10/17 09:18:39;;;;;;;;;7.00;7.00;;;;;19.42;76.95;101617.94;5015058;28;45521;-76
2022/10/17 09:21:16;;;;;;;;;9.50;7.25;;;;;19.55;77.26;101645.22;5024202;28;45598;-80
2022/10/17 09:23:54;;;;;;;;;8.25;6.25;;;;;19.41;77.29;101625.19;5013034;28;45808;-82
2022/10/17 09:26:20;;;;;;;;;8.50;7.25;;;;;19.44;77.32;101629.53;5015007;28;46660;-74
2022/10/17 09:28:52;;;;;;;;;10.00;8.00;;;;;19.59;77.56;101658.47;5015065;28;46998;-74
2022/10/17 09:31:31;;;;;;;;;8.75;8.00;;;;;19.47;77.83;101633.94;5031974;28;45716;-74
2022/10/17 09:34:01;;;;;;;;;7.00;6.25;;;;;19.43;77.48;101631.38;5010820;28;45502;-67
2022/10/17 09:36:33;;;;;;;;;7.50;6.50;;;;;19.44;78.28;101633.16;5016755;28;45459;-67
2022/10/17 09:39:21;;;;;;;;;7.00;6.00;;;;;19.65;78.33;101670.81;5010510;28;45501;-68
2022/10/17 09:41:54;;;;;;;;;8.00;7.00;;;;;19.46;78.09;101638.44;5014797;28;45996;-67
2022/10/17 09:44:28;;;;;;;;;7.75;7.00;;;;;19.44;78.66;101645.78;5016280;28;45805;-66
2022/10/17 09:47:17;;;;;;;;;9.25;8.00;;;;;19.62;78.77;101679.97;5016282;28;45593;-66
2022/10/17 09:49:45;;;;;;;;;7.75;6.50;;;;;19.51;78.60;101649.03;5002630;28;47063;-65
2022/10/17 09:52:15;;;;;;;;;7.00;7.00;;;;;19.48;78.92;101641.97;5015997;28;45540;-66
2022/10/17 09:54:51;;;;;;;;;9.00;8.25;;;;;19.46;79.15;101643.88;5017492;28;45754;-66
2022/10/17 09:57:18;;;;;;;;;9.00;8.00;;;;;19.64;79.31;101671.75;5017134;28;45366;-63
2022/10/17 10:00:06;;;;;;;;;8.25;8.25;;;;;19.54;79.33;101665.97;5010995;28;46110;-62
2022/10/17 10:02:35;;;;;;;;;9.25;8.75;;;;;19.44;79.70;101643.09;5017032;28;45628;-63
2022/10/17 10:05:16;;;;;;;;;10.25;8.50;;;;;19.40;79.41;101638.81;5016580;28;45429;-64
2022/10/17 10:07:44;;;;;;;;;11.50;10.75;;;;;19.63;79.90;101675.44;5019053;28;45560;-64
2022/10/17 10:10:25;;;;;;;;;12.50;11.75;;;;;19.53;79.57;101649.81;5008526;28;45375;-66
2022/10/17 10:13:13;;;;;;;;;8.00;8.00;;;;;19.65;79.86;101667.25;5015765;28;45269;-67
2022/10/17 10:15:43;;;;;;;;;10.25;10.25;;;;;19.47;79.95;101650.19;5001388;28;45653;-67
2022/10/17 10:18:24;;;;;;;;;12.00;9.75;;;;;19.63;80.21;101681.72;5015349;28;45438;-66
2022/10/17 10:21:10;;;;;;;;;7.75;7.25;;;;;19.63;80.08;101681.72;5010509;28;46796;-66
2022/10/17 10:23:41;;;;;;;;;10.50;8.25;;;;;19.59;80.19;101682.84;5017467;28;45387;-67
2022/10/17 10:26:26;;;;;;;;;9.00;9.00;;;;;19.65;80.56;101700.59;5014722;28;46223;-67
2022/10/17 10:29:01;;;;;;;;;12.75;9.50;;;;;19.58;80.36;101712.75;5016334;28;45385;-67
2022/10/17 10:31:33;;;;;;;;;14.50;13.00;;;;;19.64;80.57;101744.88;5032519;28;48334;-67
2022/10/17 10:34:01;;;;;;;;;12.00;10.75;;;;;19.40;80.75;101715.47;5015560;28;45403;-67
2022/10/17 10:36:46;;;;;;;;;10.25;9.50;;;;;19.54;80.83;101732.81;5011683;28;45644;-68
2022/10/17 10:39:44;;;;;;;;;12.00;11.25;;;;;19.60;80.75;101744.19;5014950;28;45661;-67
2022/10/17 10:42:20;;;;;;;;;15.25;12.00;;;;;19.62;81.40;101741.41;5006480;28;45623;-68
2022/10/17 10:44:48;;;;;;;;;11.25;10.25;;;;;19.56;81.46;101728.19;5013796;28;45669;-68
2022/10/17 10:47:20;;;;;;;;;10.00;8.75;;;;;19.46;81.38;101722.38;5021196;28;46133;-68
2022/10/17 10:49:46;;;;;;;;;12.00;12.00;;;;;19.46;81.39;101735.91;5019024;28;45712;-68
2022/10/17 10:52:22;;;;;;;;;17.00;15.50;;;;;19.46;81.48;101744.03;5034178;28;47114;-68
2022/10/17 10:54:56;;;;;;;;;13.25;13.00;;;;;19.52;81.13;101743.72;5017356;28;45465;-67
2022/10/17 10:57:28;;;;;;;;;9.75;9.75;;;;;19.46;81.25;101743.19;5015392;28;45413;-68
2022/10/17 11:00:03;;;;;;;;;11.25;9.75;;;;;19.49;81.51;101762.84;5008838;28;45528;-68
2022/10/17 11:03:06;;;;;;;;;10.75;10.50;;;;;19.44;81.57;101741.44;5018767;28;45769;-68
2022/10/17 11:05:53;;;;;;;;;12.75;10.25;;;;;19.63;81.38;101754.00;5027854;28;45436;-69
2022/10/17 11:08:44;;;;;;;;;10.50;9.25;;;;;19.41;81.43;101714.53;5025768;28;45770;-69
2022/10/17 11:11:18;;;;;;;;;13.50;12.50;;;;;19.41;81.19;101730.78;5017339;28;45426;-69
2022/10/17 11:13:50;;;;;;;;;10.00;10.00;;;;;19.52;81.61;101765.38;5017559;28;46404;-71
2022/10/17 11:16:27;;;;;;;;;11.50;10.75;;;;;19.54;81.83;101770.72;5011830;28;46711;-71
2022/10/17 11:19:24;;;;;;;;;11.25;11.00;;;;;19.58;81.88;101781.31;5015904;28;45534;-67
2022/10/17 11:22:28;;;;;;;;;12.25;11.00;;;;;19.57;81.99;101790.38;5015637;28;45595;-70
2022/10/17 11:25:27;;;;;;;;;11.75;11.75;;;;;19.57;82.08;101800.34;5006424;28;48389;-70
2022/10/17 11:27:53;;;;;;;;;13.00;11.25;;;;;19.35;81.96;101766.28;5006921;28;45534;-70
2022/10/17 11:30:22;;;;;;;;;11.75;9.25;;;;;19.47;82.03;101772.03;5015889;28;45882;-70
2022/10/17 11:32:56;;;;;;;;;13.00;12.00;;;;;19.52;82.30;101781.63;5016318;28;45476;-70
2022/10/17 11:35:29;;;;;;;;;14.50;12.00;;;;;19.54;82.36;101790.53;5012687;28;46816;-69
2022/10/17 11:38:19;;;;;;;;;12.00;12.00;;;;;19.56;82.21;101782.34;5012770;28;45789;-70